Time;durP1;ratioP1;P1;durP2;ratioP2;P2;SDS_P1;SDS_P2;PMS_P1;PMS_P2;Temp;Humidity;BMP_temperature;BMP_pressure;BME280_temperature;BME280_humidity;BME280_pressure;Samples;Min_cycle;Max_cycle;Signal;HPM_P1;HPM_P2
2022/04/23 00:00:50;;;;;;;11.23;9.20;;;;;;;;;;5079840;28;20032;-67
2022/04/23 00:03:15;;;;;;;43.50;30.85;;;;;;;;;;5081473;28;20389;-67
2022/04/23 00:05:41;;;;;;;30.92;20.88;;;;;;;;;;5080798;28;20047;-67
2022/04/23 00:08:06;;;;;;;16.70;9.77;;;;;;;;;;5073617;28;20409;-67
2022/04/23 00:10:32;;;;;;;10.45;8.15;;;;;;;;;;5076178;28;20445;-68
2022/04/23 00:12:57;;;;;;;14.90;8.95;;;;;;;;;;5069999;28;20028;-72
2022/04/23 00:15:25;;;;;;;11.93;10.15;;;;;;;;;;5079769;28;20024;-72
2022/04/23 00:17:50;;;;;;;28.05;20.65;;;;;;;;;;5069341;28;20052;-68
2022/04/23 00:20:18;;;;;;;34.75;25.52;;;;;;;;;;5084948;28;20063;-67
2022/04/23 00:22:43;;;;;;;33.25;26.27;;;;;;;;;;5084433;28;20024;-78
2022/04/23 00:25:09;;;;;;;25.58;17.02;;;;;;;;;;5085150;28;20031;-71
2022/04/23 00:27:34;;;;;;;22.73;14.57;;;;;;;;;;5086035;28;20020;-67
2022/04/23 00:30:00;;;;;;;17.30;12.18;;;;;;;;;;5084195;28;20455;-68
2022/04/23 00:32:25;;;;;;;14.55;10.13;;;;;;;;;;5085087;28;20032;-69
2022/04/23 00:34:50;;;;;;;13.52;8.68;;;;;;;;;;5070925;28;20024;-77
2022/04/23 00:37:16;;;;;;;11.27;7.60;;;;;;;;;;5071195;28;20344;-69
2022/04/23 00:39:41;;;;;;;15.52;8.32;;;;;;;;;;5074454;28;20411;-71
2022/04/23 00:42:09;;;;;;;11.05;7.90;;;;;;;;;;5084221;28;20447;-69
2022/04/23 00:44:34;;;;;;;25.50;15.75;;;;;;;;;;5084822;28;20032;-70
2022/04/23 00:47:00;;;;;;;27.00;17.45;;;;;;;;;;5084293;28;20032;-68
2022/04/23 00:49:25;;;;;;;21.00;16.17;;;;;;;;;;5083998;28;20166;-70
2022/04/23 00:51:51;;;;;;;25.38;17.27;;;;;;;;;;5084220;28;20043;-68
2022/04/23 00:54:18;;;;;;;24.08;16.27;;;;;;;;;;5084109;28;20110;-73
2022/04/23 00:56:44;;;;;;;20.05;13.35;;;;;;;;;;5076064;28;20421;-77
2022/04/23 00:59:11;;;;;;;19.20;13.27;;;;;;;;;;5081247;28;20040;-69
2022/04/23 01:01:36;;;;;;;13.38;9.93;;;;;;;;;;5082496;28;20080;-68
2022/04/23 01:04:02;;;;;;;14.98;10.93;;;;;;;;;;5082865;28;20024;-69
2022/04/23 01:06:29;;;;;;;20.60;11.52;;;;;;;;;;5073958;28;20453;-68
2022/04/23 01:08:54;;;;;;;20.95;11.15;;;;;;;;;;5082575;28;21401;-74
2022/04/23 01:11:20;;;;;;;13.27;8.20;;;;;;;;;;5084250;28;20092;-70
2022/04/23 01:13:45;;;;;;;14.15;9.35;;;;;;;;;;5084141;28;20080;-68
2022/04/23 01:16:11;;;;;;;11.18;8.18;;;;;;;;;;5084181;28;20111;-74
2022/04/23 01:18:40;;;;;;;17.98;11.10;;;;;;;;;;5079774;28;20039;-70
2022/04/23 01:21:05;;;;;;;11.25;7.93;;;;;;;;;;5075509;28;20127;-70
2022/04/23 01:23:31;;;;;;;12.77;7.50;;;;;;;;;;5084021;28;20193;-68
2022/04/23 01:25:56;;;;;;;12.20;7.50;;;;;;;;;;5083550;28;20027;-69
2022/04/23 01:28:22;;;;;;;9.52;6.95;;;;;;;;;;5083407;28;20237;-68
2022/04/23 01:30:49;;;;;;;13.30;9.82;;;;;;;;;;5072036;28;20031;-68
2022/04/23 01:33:14;;;;;;;13.07;9.15;;;;;;;;;;5082274;28;20580;-74
2022/04/23 01:35:40;;;;;;;13.07;9.68;;;;;;;;;;5081028;28;20099;-70
2022/04/23 01:38:05;;;;;;;15.77;11.55;;;;;;;;;;5075317;28;20024;-72
2022/04/23 01:40:30;;;;;;;17.38;13.40;;;;;;;;;;5081514;28;20024;-68
2022/04/23 01:42:56;;;;;;;24.65;15.48;;;;;;;;;;5082542;28;20020;-69
2022/04/23 01:45:21;;;;;;;20.10;13.82;;;;;;;;;;5084205;28;20056;-69
2022/04/23 01:47:46;;;;;;;17.73;12.38;;;;;;;;;;5082449;28;20071;-69
2022/04/23 01:50:12;;;;;;;24.60;15.73;;;;;;;;;;5083047;28;20036;-68
2022/04/23 01:52:37;;;;;;;20.40;13.60;;;;;;;;;;5082580;28;20024;-70
2022/04/23 01:55:02;;;;;;;20.63;14.20;;;;;;;;;;5061369;28;20092;-77
2022/04/23 01:57:28;;;;;;;23.23;15.63;;;;;;;;;;5082459;28;20020;-72
2022/04/23 01:59:53;;;;;;;22.55;13.90;;;;;;;;;;5082693;28;20397;-72
2022/04/23 02:02:18;;;;;;;17.73;12.63;;;;;;;;;;5082783;28;20024;-75
2022/04/23 02:04:44;;;;;;;13.50;9.65;;;;;;;;;;5082391;28;20067;-71
2022/04/23 02:07:09;;;;;;;15.65;10.60;;;;;;;;;;5072860;28;20028;-68
2022/04/23 02:09:34;;;;;;;15.57;9.73;;;;;;;;;;5081865;28;20097;-69
2022/04/23 02:12:00;;;;;;;13.75;10.15;;;;;;;;;;5084260;28;20459;-69
2022/04/23 02:14:25;;;;;;;16.02;10.52;;;;;;;;;;5078079;28;20020;-69
2022/04/23 02:16:51;;;;;;;14.38;9.50;;;;;;;;;;5070475;28;20027;-70
2022/04/23 02:19:17;;;;;;;10.30;8.52;;;;;;;;;;5068669;28;20089;-72
2022/04/23 02:21:44;;;;;;;10.30;8.50;;;;;;;;;;5058681;28;20342;-70
2022/04/23 02:24:09;;;;;;;12.70;9.30;;;;;;;;;;5076898;28;20081;-75
2022/04/23 02:26:35;;;;;;;15.82;8.70;;;;;;;;;;5083275;28;20438;-69
2022/04/23 02:29:00;;;;;;;14.23;8.55;;;;;;;;;;5081639;28;20920;-70
2022/04/23 02:31:26;;;;;;;13.10;7.78;;;;;;;;;;5083191;28;20055;-74
2022/04/23 02:33:51;;;;;;;11.70;6.78;;;;;;;;;;5081389;28;20431;-71
2022/04/23 02:36:16;;;;;;;8.55;6.43;;;;;;;;;;5081892;28;20100;-67
2022/04/23 02:38:42;;;;;;;8.27;6.57;;;;;;;;;;5083364;28;20946;-73
2022/04/23 02:41:07;;;;;;;9.80;6.82;;;;;;;;;;5080932;28;20043;-74
2022/04/23 02:43:35;;;;;;;14.27;8.93;;;;;;;;;;5082299;28;20020;-71
2022/04/23 02:46:01;;;;;;;10.07;7.15;;;;;;;;;;5081008;28;20035;-72
2022/04/23 02:48:28;;;;;;;9.55;6.90;;;;;;;;;;5082021;28;20024;-73
2022/04/23 02:50:54;;;;;;;7.05;6.35;;;;;;;;;;5081881;28;20020;-68
2022/04/23 02:53:19;;;;;;;10.75;7.20;;;;;;;;;;5081635;28;20027;-68
2022/04/23 02:55:46;;;;;;;10.63;7.28;;;;;;;;;;5081976;28;20023;-67
2022/04/23 02:58:11;;;;;;;12.88;8.15;;;;;;;;;;5082968;28;20392;-69
2022/04/23 03:00:43;;;;;;;10.27;7.40;;;;;;;;;;5082686;28;20024;-74
2022/04/23 03:03:09;;;;;;;10.75;7.40;;;;;;;;;;5081695;28;20973;-69
2022/04/23 03:05:34;;;;;;;8.13;6.82;;;;;;;;;;5080955;28;20048;-68
2022/04/23 03:08:00;;;;;;;8.68;6.53;;;;;;;;;;5082202;28;20039;-69
2022/04/23 03:10:26;;;;;;;12.65;6.10;;;;;;;;;;5081923;28;20067;-68
2022/04/23 03:12:51;;;;;;;7.60;5.95;;;;;;;;;;5071538;28;20435;-69
2022/04/23 03:15:17;;;;;;;9.05;5.18;;;;;;;;;;5073449;28;20043;-69
2022/04/23 03:17:42;;;;;;;8.43;5.70;;;;;;;;;;5081628;28;20020;-70
2022/04/23 03:20:09;;;;;;;7.28;5.10;;;;;;;;;;5082165;28;20080;-73
2022/04/23 03:22:35;;;;;;;9.48;5.70;;;;;;;;;;5082316;28;20102;-68
2022/04/23 03:25:00;;;;;;;8.50;6.55;;;;;;;;;;5081970;28;20103;-68
2022/04/23 03:27:26;;;;;;;11.75;7.15;;;;;;;;;;5081493;28;20024;-69
2022/04/23 03:29:51;;;;;;;11.70;6.30;;;;;;;;;;5081115;28;20769;-72
2022/04/23 03:32:17;;;;;;;7.80;5.15;;;;;;;;;;5067818;28;20089;-67
2022/04/23 03:34:42;;;;;;;11.38;4.65;;;;;;;;;;5071681;28;20024;-67
2022/04/23 03:37:08;;;;;;;7.93;5.75;;;;;;;;;;5081959;28;20051;-72
2022/04/23 03:39:33;;;;;;;8.13;4.57;;;;;;;;;;5081435;28;20119;-70
2022/04/23 03:42:01;;;;;;;8.63;4.10;;;;;;;;;;5081933;28;20388;-70
2022/04/23 03:44:26;;;;;;;12.95;6.18;;;;;;;;;;5081376;28;20028;-74
2022/04/23 03:46:51;;;;;;;8.95;4.82;;;;;;;;;;5081456;28;20089;-68
2022/04/23 03:49:17;;;;;;;12.35;4.53;;;;;;;;;;5081839;28;20146;-76
2022/04/23 03:51:42;;;;;;;7.60;3.80;;;;;;;;;;5079770;28;20040;-72
2022/04/23 03:54:07;;;;;;;15.05;5.60;;;;;;;;;;5080856;28;20040;-68
2022/04/23 03:56:33;;;;;;;11.80;5.07;;;;;;;;;;5081327;28;20089;-68
2022/04/23 03:58:59;;;;;;;10.73;4.95;;;;;;;;;;5081021;28;20426;-69
2022/04/23 04:01:24;;;;;;;14.13;6.28;;;;;;;;;;5079845;28;20051;-72
2022/04/23 04:03:49;;;;;;;12.52;6.22;;;;;;;;;;5080297;28;20100;-67
2022/04/23 04:06:14;;;;;;;11.20;5.75;;;;;;;;;;5080157;28;20123;-67
2022/04/23 04:08:40;;;;;;;12.95;6.50;;;;;;;;;;5063400;28;20400;-68
2022/04/23 04:11:05;;;;;;;9.43;6.05;;;;;;;;;;5080742;28;20024;-66
2022/04/23 04:13:30;;;;;;;11.05;5.80;;;;;;;;;;5081256;28;20051;-68
2022/04/23 04:15:56;;;;;;;6.38;4.20;;;;;;;;;;5080393;28;20441;-75
2022/04/23 04:18:22;;;;;;;7.78;4.63;;;;;;;;;;5080176;28;20096;-70
2022/04/23 04:20:53;;;;;;;6.00;3.22;;;;;;;;;;5071208;28;20034;-67
2022/04/23 04:23:19;;;;;;;5.95;2.75;;;;;;;;;;5066111;28;20107;-74
2022/04/23 04:25:46;;;;;;;4.20;2.70;;;;;;;;;;5068455;28;20035;-67
2022/04/23 04:28:11;;;;;;;6.22;2.65;;;;;;;;;;5070556;28;20052;-70
2022/04/23 04:33:22;;;;;;;4.93;2.53;;;;;;;;;;5068264;28;20035;-69
2022/04/23 04:35:47;;;;;;;4.38;2.25;;;;;;;;;;5076961;28;20024;-68
2022/04/23 04:38:12;;;;;;;6.57;3.78;;;;;;;;;;5060564;28;20036;-66
2022/04/23 04:40:38;;;;;;;7.05;4.03;;;;;;;;;;5079772;28;20032;-69
2022/04/23 04:43:04;;;;;;;9.80;5.43;;;;;;;;;;5076031;28;20035;-66
2022/04/23 04:45:29;;;;;;;8.93;4.53;;;;;;;;;;5063114;28;20354;-72
2022/04/23 04:47:54;;;;;;;7.22;4.32;;;;;;;;;;5066682;28;20028;-68
2022/04/23 04:50:20;;;;;;;8.88;4.95;;;;;;;;;;5072724;28;20060;-71
2022/04/23 04:52:46;;;;;;;8.02;4.90;;;;;;;;;;5078048;28;20038;-71
2022/04/23 04:55:11;;;;;;;8.85;5.32;;;;;;;;;;5079375;28;20028;-66
2022/04/23 04:57:36;;;;;;;7.22;4.97;;;;;;;;;;5078984;28;20112;-65
2022/04/23 05:00:03;;;;;;;8.20;4.88;;;;;;;;;;5079178;28;20340;-67
2022/04/23 05:02:28;;;;;;;9.88;4.93;;;;;;;;;;5079249;28;20016;-68
2022/04/23 05:04:53;;;;;;;10.05;5.40;;;;;;;;;;5080510;28;20090;-70
2022/04/23 05:07:19;;;;;;;10.07;5.05;;;;;;;;;;5083436;28;20031;-67
2022/04/23 05:09:44;;;;;;;14.50;9.38;;;;;;;;;;5073287;28;20024;-65
2022/04/23 05:12:09;;;;;;;15.77;9.63;;;;;;;;;;5071399;28;21182;-73
2022/04/23 05:14:35;;;;;;;11.13;5.65;;;;;;;;;;5070042;28;20027;-73
2022/04/23 05:17:00;;;;;;;12.38;5.93;;;;;;;;;;5069351;28;20024;-67
2022/04/23 05:19:25;;;;;;;20.55;14.43;;;;;;;;;;5070255;28;20042;-68
2022/04/23 05:21:51;;;;;;;9.70;5.75;;;;;;;;;;5072674;28;20059;-65
2022/04/23 05:24:16;;;;;;;9.32;4.63;;;;;;;;;;5070428;28;20044;-68
2022/04/23 05:26:41;;;;;;;9.25;5.53;;;;;;;;;;5051485;28;20020;-66
2022/04/23 05:29:07;;;;;;;13.05;6.13;;;;;;;;;;5082286;28;20024;-65
2022/04/23 05:31:32;;;;;;;16.70;9.93;;;;;;;;;;5074205;28;20743;-73
2022/04/23 05:33:58;;;;;;;18.30;12.13;;;;;;;;;;5070124;28;20086;-72
2022/04/23 05:36:23;;;;;;;90.90;56.38;;;;;;;;;;5076211;28;20048;-66
2022/04/23 05:38:48;;;;;;;46.30;32.80;;;;;;;;;;5081371;28;20042;-76
2022/04/23 05:41:14;;;;;;;73.28;49.22;;;;;;;;;;5072756;28;20111;-70
2022/04/23 05:43:41;;;;;;;58.47;36.85;;;;;;;;;;5082751;28;20020;-65
2022/04/23 05:46:06;;;;;;;33.75;21.90;;;;;;;;;;5081191;28;20028;-66
2022/04/23 05:48:32;;;;;;;70.00;48.75;;;;;;;;;;5070800;28;20032;-70
2022/04/23 05:50:57;;;;;;;51.78;35.85;;;;;;;;;;5077524;28;20036;-68
2022/04/23 05:53:22;;;;;;;22.10;15.88;;;;;;;;;;5080500;28;20031;-76
2022/04/23 05:55:48;;;;;;;33.25;20.45;;;;;;;;;;5065876;28;20434;-69
2022/04/23 05:58:13;;;;;;;48.60;33.45;;;;;;;;;;5071967;28;20408;-68
2022/04/23 06:00:38;;;;;;;80.07;56.42;;;;;;;;;;5081491;28;20089;-73
2022/04/23 06:03:04;;;;;;;67.63;49.35;;;;;;;;;;5081609;28;20443;-70
2022/04/23 06:05:30;;;;;;;35.08;25.05;;;;;;;;;;5080558;28;20438;-67
2022/04/23 06:07:55;;;;;;;163.05;110.60;;;;;;;;;;5063204;28;20120;-69
2022/04/23 06:10:21;;;;;;;33.72;22.67;;;;;;;;;;5082111;28;20040;-70
2022/04/23 06:12:46;;;;;;;23.75;16.23;;;;;;;;;;5076984;28;20079;-69
2022/04/23 06:15:11;;;;;;;24.35;18.88;;;;;;;;;;5069150;28;20059;-69
2022/04/23 06:17:37;;;;;;;41.42;32.70;;;;;;;;;;5068671;28;20028;-69
2022/04/23 06:20:02;;;;;;;23.98;16.13;;;;;;;;;;5067819;28;20032;-71
2022/04/23 06:22:27;;;;;;;13.25;8.40;;;;;;;;;;5069285;28;20023;-67
2022/04/23 06:24:53;;;;;;;16.52;10.15;;;;;;;;;;5079701;28;20028;-67
2022/04/23 06:27:18;;;;;;;78.57;67.63;;;;;;;;;;5068167;28;20020;-68
2022/04/23 06:29:44;;;;;;;40.17;34.53;;;;;;;;;;5079112;28;20054;-65
2022/04/23 06:32:10;;;;;;;37.50;28.33;;;;;;;;;;5055642;28;20031;-67
2022/04/23 06:34:37;;;;;;;15.25;10.32;;;;;;;;;;5070622;28;20032;-67
2022/04/23 06:37:02;;;;;;;8.63;4.25;;;;;;;;;;5072444;28;20024;-73
2022/04/23 06:39:27;;;;;;;7.75;5.95;;;;;;;;;;5070110;28;21650;-70
2022/04/23 06:41:53;;;;;;;32.03;21.80;;;;;;;;;;5071165;28;20036;-73
2022/04/23 06:44:18;;;;;;;83.13;64.63;;;;;;;;;;5068445;28;20045;-74
2022/04/23 06:46:44;;;;;;;34.17;26.23;;;;;;;;;;5065287;28;20093;-75
2022/04/23 06:49:11;;;;;;;26.42;19.50;;;;;;;;;;5066341;28;20038;-69
2022/04/23 06:51:37;;;;;;;29.67;20.85;;;;;;;;;;5068855;28;20035;-68
2022/04/23 06:54:03;;;;;;;29.50;24.17;;;;;;;;;;5051324;28;20089;-66
2022/04/23 06:56:28;;;;;;;31.92;26.58;;;;;;;;;;5073689;28;20028;-69
2022/04/23 06:58:53;;;;;;;20.92;15.43;;;;;;;;;;5073236;28;20032;-67
2022/04/23 07:01:19;;;;;;;17.17;12.38;;;;;;;;;;5075854;28;20066;-66
2022/04/23 07:03:44;;;;;;;11.95;8.93;;;;;;;;;;5053220;28;20020;-65
2022/04/23 07:06:11;;;;;;;10.23;6.78;;;;;;;;;;5082040;28;20133;-66
2022/04/23 07:08:39;;;;;;;10.95;6.95;;;;;;;;;;5081006;28;20040;-72
2022/04/23 07:11:04;;;;;;;20.88;16.52;;;;;;;;;;5080037;28;20119;-67
2022/04/23 07:13:30;;;;;;;15.40;9.93;;;;;;;;;;5065313;28;20116;-68
2022/04/23 07:15:55;;;;;;;11.18;5.63;;;;;;;;;;5078833;28;20024;-66
2022/04/23 07:18:21;;;;;;;21.17;15.85;;;;;;;;;;5073846;28;20381;-68
2022/04/23 07:20:46;;;;;;;12.38;8.80;;;;;;;;;;5071621;28;20341;-66
2022/04/23 07:25:55;;;;;;;4.13;2.60;;;;;;;;;;5075780;28;20023;-68
2022/04/23 07:28:21;;;;;;;4.60;3.40;;;;;;;;;;5080619;28;20024;-68
2022/04/23 07:30:46;;;;;;;7.88;5.38;;;;;;;;;;5081820;28;20138;-67
2022/04/23 07:37:28;;;;;;;8.27;4.68;;;;;;;;;;5080510;28;20031;-71
2022/04/23 07:38:41;;;;;;;3.08;2.35;;;;;;;;;;5080869;28;20453;-69
2022/04/23 07:41:06;;;;;;;4.43;2.80;;;;;;;;;;5079910;28;20028;-69
2022/04/23 07:43:32;;;;;;;15.00;10.60;;;;;;;;;;5081046;28;20081;-68
2022/04/23 07:45:57;;;;;;;15.35;12.57;;;;;;;;;;5079265;28;20028;-69
2022/04/23 07:48:22;;;;;;;3.30;2.22;;;;;;;;;;5080241;28;20077;-71
2022/04/23 07:50:48;;;;;;;3.67;2.70;;;;;;;;;;5070109;28;20140;-66
2022/04/23 07:53:13;;;;;;;3.83;2.70;;;;;;;;;;5070944;28;20038;-73
2022/04/23 07:55:40;;;;;;;4.18;3.13;;;;;;;;;;5076967;28;20725;-70
2022/04/23 07:58:06;;;;;;;4.57;4.10;;;;;;;;;;5062787;28;20032;-71
2022/04/23 08:00:31;;;;;;;2.60;2.40;;;;;;;;;;5065769;28;20375;-68
2022/04/23 08:02:57;;;;;;;3.58;1.80;;;;;;;;;;5066362;28;20153;-76
2022/04/23 08:05:23;;;;;;;2.25;1.55;;;;;;;;;;5049005;28;20058;-73
2022/04/23 08:07:48;;;;;;;1.90;0.85;;;;;;;;;;5067581;28;20179;-75
2022/04/23 08:10:14;;;;;;;1.42;0.75;;;;;;;;;;5067220;28;20111;-68
2022/04/23 08:12:39;;;;;;;1.90;1.20;;;;;;;;;;5067506;28;20028;-70
2022/04/23 08:15:05;;;;;;;3.17;1.13;;;;;;;;;;5067619;28;20016;-70
2022/04/23 08:17:30;;;;;;;3.13;1.15;;;;;;;;;;5066452;28;20035;-69
2022/04/23 08:19:56;;;;;;;3.60;1.20;;;;;;;;;;5066316;28;20036;-78
2022/04/23 08:22:21;;;;;;;3.50;1.67;;;;;;;;;;5077469;28;20423;-76
2022/04/23 08:24:46;;;;;;;2.15;1.00;;;;;;;;;;5080776;28;20039;-74
2022/04/23 08:27:12;;;;;;;2.33;0.95;;;;;;;;;;5080700;28;20081;-71
2022/04/23 08:32:21;;;;;;;2.25;0.60;;;;;;;;;;5064751;28;21113;-65
2022/04/23 08:34:46;;;;;;;1.83;0.80;;;;;;;;;;5064378;28;20016;-66
2022/04/23 08:37:14;;;;;;;3.03;0.82;;;;;;;;;;5065535;28;20447;-73
2022/04/23 08:39:42;;;;;;;0.50;0.50;;;;;;;;;;5068813;28;20046;-71
2022/04/23 08:42:08;;;;;;;0.73;0.70;;;;;;;;;;5070251;28;20024;-67
2022/04/23 08:44:33;;;;;;;0.95;0.75;;;;;;;;;;5069008;28;20036;-68
2022/04/23 08:46:59;;;;;;;1.30;0.80;;;;;;;;;;5068967;28;20035;-66
2022/04/23 08:49:29;;;;;;;2.50;1.00;;;;;;;;;;5070694;28;20122;-72
2022/04/23 08:51:58;;;;;;;1.90;0.98;;;;;;;;;;5071331;28;20024;-76
2022/04/23 08:54:24;;;;;;;4.13;1.08;;;;;;;;;;5070428;28;20039;-68
2022/04/23 08:56:49;;;;;;;2.30;1.15;;;;;;;;;;5053409;28;20028;-69
2022/04/23 08:59:15;;;;;;;4.25;1.48;;;;;;;;;;5068842;28;20484;-67
2022/04/23 09:01:41;;;;;;;4.80;1.77;;;;;;;;;;5056172;28;20038;-69
2022/04/23 09:04:07;;;;;;;13.73;7.82;;;;;;;;;;5083213;28;20047;-71
2022/04/23 09:06:34;;;;;;;3.45;2.53;;;;;;;;;;5071272;28;20028;-71
2022/04/23 09:09:06;;;;;;;4.20;2.05;;;;;;;;;;5042265;28;22017;-69
2022/04/23 09:11:33;;;;;;;5.32;1.88;;;;;;;;;;5069574;28;20031;-69
2022/04/23 09:13:58;;;;;;;53.97;24.88;;;;;;;;;;5069718;28;20024;-73
2022/04/23 09:24:45;;;;;;;6.10;2.88;;;;;;;;;;5082507;28;20035;-70
2022/04/23 09:27:10;;;;;;;5.75;2.17;;;;;;;;;;5077794;28;20533;-70
2022/04/23 09:29:36;;;;;;;3.92;1.92;;;;;;;;;;5066923;28;20166;-70
2022/04/23 09:32:14;;;;;;;4.05;1.30;;;;;;;;;;5068334;28;20028;-69
2022/04/23 09:34:40;;;;;;;8.43;4.55;;;;;;;;;;5067317;28;20395;-70
2022/04/23 09:37:05;;;;;;;3.72;1.98;;;;;;;;;;5066014;28;20105;-69
2022/04/23 09:39:33;;;;;;;5.93;3.30;;;;;;;;;;5069658;28;20035;-73
2022/04/23 09:42:12;;;;;;;19.23;10.60;;;;;;;;;;5069146;28;20106;-68
2022/04/23 09:44:38;;;;;;;8.57;5.93;;;;;;;;;;5068545;28;20032;-75
2022/04/23 09:47:03;;;;;;;5.05;2.70;;;;;;;;;;5067888;28;20077;-70
2022/04/23 09:49:28;;;;;;;4.85;2.53;;;;;;;;;;5068231;28;20032;-69
2022/04/23 09:52:02;;;;;;;6.38;2.40;;;;;;;;;;5068082;28;20855;-72
2022/04/23 09:54:27;;;;;;;5.15;1.85;;;;;;;;;;5068455;28;20076;-70
2022/04/23 09:56:53;;;;;;;4.00;1.30;;;;;;;;;;5074359;28;20036;-68
2022/04/23 09:59:18;;;;;;;4.50;1.67;;;;;;;;;;5072840;28;20419;-69
2022/04/23 10:01:44;;;;;;;2.22;1.10;;;;;;;;;;5068989;28;20084;-70
2022/04/23 10:04:12;;;;;;;3.58;1.33;;;;;;;;;;5073217;28;21350;-70
2022/04/23 10:06:39;;;;;;;5.90;1.10;;;;;;;;;;5072902;28;20079;-71
2022/04/23 10:09:05;;;;;;;4.60;1.23;;;;;;;;;;5057681;28;20096;-69
2022/04/23 10:11:31;;;;;;;1.58;0.70;;;;;;;;;;5070280;28;20028;-70
2022/04/23 10:13:59;;;;;;;4.93;1.45;;;;;;;;;;5068708;28;21168;-70
2022/04/23 10:16:25;;;;;;;1.75;0.90;;;;;;;;;;5067787;28;20038;-72
2022/04/23 10:18:51;;;;;;;1.65;1.17;;;;;;;;;;5069210;28;20040;-68
2022/04/23 10:21:39;;;;;;;2.33;0.70;;;;;;;;;;5068406;28;20036;-70
2022/04/23 10:24:11;;;;;;;3.97;1.45;;;;;;;;;;5068380;28;20066;-72
2022/04/23 10:26:48;;;;;;;2.20;1.35;;;;;;;;;;5068517;28;20350;-72
2022/04/23 10:29:15;;;;;;;2.67;0.98;;;;;;;;;;5067991;28;20439;-71
2022/04/23 10:31:41;;;;;;;1.30;0.70;;;;;;;;;;5068550;28;20044;-70
2022/04/23 10:34:26;;;;;;;3.88;1.10;;;;;;;;;;5066156;28;20069;-76
2022/04/23 10:37:11;;;;;;;3.15;0.82;;;;;;;;;;5067748;28;20161;-71
2022/04/23 10:39:37;;;;;;;3.72;1.70;;;;;;;;;;5068615;28;20328;-70
2022/04/23 10:42:02;;;;;;;3.72;1.10;;;;;;;;;;5068019;28;20023;-71
2022/04/23 10:44:30;;;;;;;7.03;4.45;;;;;;;;;;5066835;28;20071;-71
2022/04/23 10:46:58;;;;;;;4.78;2.45;;;;;;;;;;5073379;28;20053;-75
2022/04/23 10:49:24;;;;;;;1.73;1.50;;;;;;;;;;5064599;28;20423;-72
2022/04/23 10:51:56;;;;;;;26.20;20.92;;;;;;;;;;5067980;28;20058;-70
2022/04/23 10:54:40;;;;;;;5.45;4.28;;;;;;;;;;5067261;28;20066;-71
2022/04/23 10:57:09;;;;;;;25.27;19.45;;;;;;;;;;5068476;28;20020;-71
2022/04/23 10:59:36;;;;;;;45.50;34.53;;;;;;;;;;5067812;28;20023;-77
2022/04/23 11:02:04;;;;;;;24.27;18.67;;;;;;;;;;5065142;28;20036;-70
2022/04/23 11:04:30;;;;;;;15.48;10.82;;;;;;;;;;5063089;28;20133;-75
2022/04/23 11:12:18;;;;;;;10.07;7.53;;;;;;;;;;5068307;28;20036;-76
2022/04/23 11:14:44;;;;;;;5.63;3.75;;;;;;;;;;5065374;28;20020;-69
2022/04/23 11:17:13;;;;;;;3.33;1.40;;;;;;;;;;5066772;28;20031;-72
2022/04/23 11:19:41;;;;;;;4.78;2.15;;;;;;;;;;5074735;28;20500;-76
2022/04/23 11:22:09;;;;;;;5.03;2.50;;;;;;;;;;5081039;28;20116;-74
2022/04/23 11:24:34;;;;;;;4.57;1.35;;;;;;;;;;5081220;28;20016;-72
2022/04/23 11:27:00;;;;;;;1.80;1.35;;;;;;;;;;5080495;28;20434;-72
2022/04/23 11:29:27;;;;;;;2.65;0.90;;;;;;;;;;5069135;28;20063;-75
2022/04/23 11:31:53;;;;;;;1.88;1.13;;;;;;;;;;5079929;28;20470;-73
2022/04/23 11:34:18;;;;;;;2.90;1.20;;;;;;;;;;5079157;28;20035;-73
2022/04/23 11:36:44;;;;;;;3.38;1.20;;;;;;;;;;5064883;28;20024;-71
2022/04/23 11:39:10;;;;;;;1.33;0.70;;;;;;;;;;5067321;28;20023;-71
2022/04/23 11:41:36;;;;;;;1.58;1.00;;;;;;;;;;5075565;28;20178;-71
2022/04/23 11:44:12;;;;;;;2.05;0.77;;;;;;;;;;5068298;28;20028;-75
2022/04/23 11:46:47;;;;;;;1.85;0.73;;;;;;;;;;5067999;28;20034;-71
2022/04/23 11:49:31;;;;;;;1.10;1.00;;;;;;;;;;5066296;28;20044;-71
2022/04/23 11:51:59;;;;;;;3.17;1.02;;;;;;;;;;5065884;28;20028;-68
2022/04/23 11:54:44;;;;;;;1.58;1.10;;;;;;;;;;5067125;28;20564;-71
2022/04/23 11:57:13;;;;;;;2.45;1.30;;;;;;;;;;5067258;28;20046;-71
2022/04/23 11:59:38;;;;;;;;;;;;;;;;;;5069089;28;20031;-74
2022/04/23 12:02:22;;;;;;;3.43;2.40;;;;;;;;;;5071109;28;19908;-72
2022/04/23 12:04:49;;;;;;;3.45;1.20;;;;;;;;;;5080045;28;20051;-73
2022/04/23 12:07:15;;;;;;;2.70;1.60;;;;;;;;;;5080780;28;20068;-70
2022/04/23 12:09:44;;;;;;;5.13;1.30;;;;;;;;;;5079030;28;20024;-72
2022/04/23 12:12:09;;;;;;;2.33;0.90;;;;;;;;;;5071047;28;20020;-72
2022/04/23 12:14:42;;;;;;;1.95;1.00;;;;;;;;;;5085225;28;20431;-73
2022/04/23 12:17:07;;;;;;;2.38;0.80;;;;;;;;;;5088199;28;20411;-72
2022/04/23 12:19:33;;;;;;;1.88;1.10;;;;;;;;;;5078226;28;20039;-74
2022/04/23 12:21:58;;;;;;;1.23;0.70;;;;;;;;;;5073427;28;20439;-72
2022/04/23 12:24:33;;;;;;;1.58;0.70;;;;;;;;;;5074313;28;20035;-74
2022/04/23 12:27:05;;;;;;;2.70;0.93;;;;;;;;;;5072981;28;20052;-72
2022/04/23 12:40:46;;;;;;;4.85;3.30;;;;;;;;;;5088825;28;20111;-72
2022/04/23 12:43:21;;;;;;;3.80;1.40;;;;;;;;;;5080397;28;20111;-76
2022/04/23 12:45:47;;;;;;;7.82;5.85;;;;;;;;;;5075983;28;20019;-72
2022/04/23 12:48:14;;;;;;;4.18;2.35;;;;;;;;;;5084713;28;20028;-77
2022/04/23 12:50:40;;;;;;;3.22;2.35;;;;;;;;;;5075849;28;20026;-73
2022/04/23 12:53:05;;;;;;;9.65;5.53;;;;;;;;;;5076977;28;20143;-72
2022/04/23 12:55:36;;;;;;;10.07;5.32;;;;;;;;;;5088030;28;20222;-72
2022/04/23 12:58:08;;;;;;;9.15;4.88;;;;;;;;;;5088309;28;20081;-73
2022/04/23 13:00:38;;;;;;;5.70;1.80;;;;;;;;;;5086824;28;20020;-72
2022/04/23 13:03:18;;;;;;;5.10;3.38;;;;;;;;;;5088111;28;20024;-70
2022/04/23 13:05:43;;;;;;;4.40;2.35;;;;;;;;;;5079405;28;20071;-77
2022/04/23 13:10:52;;;;;;;5.13;1.17;;;;;;;;;;5078362;28;20059;-77
2022/04/23 13:13:17;;;;;;;3.33;2.50;;;;;;;;;;5074006;28;22485;-70
2022/04/23 13:15:43;;;;;;;5.85;5.05;;;;;;;;;;5079288;28;20035;-71
2022/04/23 13:18:08;;;;;;;8.65;6.63;;;;;;;;;;5076682;28;20089;-71
2022/04/23 13:20:34;;;;;;;13.60;8.07;;;;;;;;;;5078390;28;20063;-70
2022/04/23 13:23:00;;;;;;;6.35;2.53;;;;;;;;;;5066478;28;20373;-72
2022/04/23 13:25:26;;;;;;;2.25;1.50;;;;;;;;;;5074370;28;20016;-70
2022/04/23 13:27:51;;;;;;;2.53;1.25;;;;;;;;;;5084816;28;20075;-71
2022/04/23 13:30:17;;;;;;;7.15;6.63;;;;;;;;;;5083971;28;20102;-72
2022/04/23 13:32:43;;;;;;;4.65;2.50;;;;;;;;;;5076051;28;20028;-72
2022/04/23 13:35:10;;;;;;;3.47;1.70;;;;;;;;;;5071509;28;20347;-72
2022/04/23 13:37:36;;;;;;;3.92;1.65;;;;;;;;;;5071111;28;20042;-78
2022/04/23 13:40:01;;;;;;;5.80;2.55;;;;;;;;;;5070131;28;20024;-70
2022/04/23 13:42:27;;;;;;;1.85;1.02;;;;;;;;;;5070113;28;20027;-76
2022/04/23 13:44:54;;;;;;;2.35;1.40;;;;;;;;;;5072469;28;20032;-71
2022/04/23 13:47:20;;;;;;;6.03;3.45;;;;;;;;;;5083317;28;20041;-74
2022/04/23 13:49:45;;;;;;;1.50;1.10;;;;;;;;;;5072094;28;20408;-73
2022/04/23 13:52:11;;;;;;;1.75;1.25;;;;;;;;;;5084422;28;20035;-73
2022/04/23 13:54:36;;;;;;;9.85;7.18;;;;;;;;;;5055014;28;20438;-75
2022/04/23 13:57:03;;;;;;;5.43;3.88;;;;;;;;;;5070872;28;20058;-74
2022/04/23 13:59:28;;;;;;;2.97;2.13;;;;;;;;;;5071298;28;20040;-70
2022/04/23 14:10:07;;;;;;;8.70;6.82;;;;;;;;;;5069125;28;20039;-73
2022/04/23 14:12:32;;;;;;;5.53;3.20;;;;;;;;;;5069702;28;20031;-75
2022/04/23 14:14:57;;;;;;;5.97;3.35;;;;;;;;;;5069529;28;20509;-72
2022/04/23 14:17:23;;;;;;;6.00;3.83;;;;;;;;;;5070097;28;20028;-72
2022/04/23 14:19:48;;;;;;;7.75;4.60;;;;;;;;;;5069356;28;20747;-68
2022/04/23 14:22:13;;;;;;;5.68;3.90;;;;;;;;;;5069255;28;20105;-69
2022/04/23 14:24:39;;;;;;;8.20;5.30;;;;;;;;;;5068763;28;20032;-73
2022/04/23 14:27:05;;;;;;;9.73;5.10;;;;;;;;;;5069528;28;20370;-75
2022/04/23 14:29:30;;;;;;;12.38;8.30;;;;;;;;;;5069571;28;20046;-74
2022/04/23 14:31:55;;;;;;;6.00;3.65;;;;;;;;;;5069499;28;20034;-74
2022/04/23 14:34:21;;;;;;;5.40;3.38;;;;;;;;;;5069624;28;20352;-73
2022/04/23 14:36:46;;;;;;;14.75;9.02;;;;;;;;;;5069670;28;20020;-69
2022/04/23 14:39:11;;;;;;;9.73;5.32;;;;;;;;;;5068904;28;20536;-76
2022/04/23 14:41:36;;;;;;;6.63;5.22;;;;;;;;;;5069929;28;20050;-69
2022/04/23 14:44:02;;;;;;;6.30;4.90;;;;;;;;;;5068613;28;20427;-68
2022/04/23 14:46:28;;;;;;;6.25;3.67;;;;;;;;;;5069425;28;20032;-68
2022/04/23 14:48:53;;;;;;;10.30;6.28;;;;;;;;;;5068930;28;20077;-69
2022/04/23 14:54:02;;;;;;;5.05;3.67;;;;;;;;;;5069413;28;20035;-72
2022/04/23 14:56:28;;;;;;;4.55;4.07;;;;;;;;;;5066698;28;20028;-73
2022/04/23 14:58:54;;;;;;;3.78;1.67;;;;;;;;;;5066141;28;20116;-71
2022/04/23 15:01:20;;;;;;;5.55;4.95;;;;;;;;;;5067883;28;20024;-71
2022/04/23 15:03:46;;;;;;;11.60;8.57;;;;;;;;;;5067795;28;20032;-74
2022/04/23 15:06:12;;;;;;;21.00;14.18;;;;;;;;;;5067284;28;20105;-69
2022/04/23 15:08:39;;;;;;;8.68;7.82;;;;;;;;;;5068763;28;20027;-72
2022/04/23 15:11:07;;;;;;;7.63;4.97;;;;;;;;;;5077145;28;20032;-68
2022/04/23 15:13:34;;;;;;;5.47;3.90;;;;;;;;;;5081500;28;20023;-71
2022/04/23 15:16:00;;;;;;;7.28;4.13;;;;;;;;;;5071706;28;21448;-74
2022/04/23 15:18:26;;;;;;;4.20;2.70;;;;;;;;;;5068571;28;20032;-70